createdAt,value
2023-03-05T00:02:06.002Z,101432.31
2023-03-05T00:05:11.316Z,101439.25
2023-03-05T00:08:15.800Z,101445.34
2023-03-05T00:11:21.128Z,101453.16
2023-03-05T00:14:25.559Z,101460.97
2023-03-05T00:17:30.309Z,101454.97
2023-03-05T00:20:36.065Z,101462.75
2023-03-05T00:23:40.367Z,101466.19
2023-03-05T00:26:45.930Z,101460.19
2023-03-05T00:29:50.135Z,101466.19
2023-03-05T00:32:54.497Z,101456.75
2023-03-05T00:36:01.714Z,101460.19
2023-03-05T00:39:06.397Z,101460.19
2023-03-05T00:42:10.591Z,101462.81
2023-03-05T00:45:14.694Z,101461.94
2023-03-05T00:48:18.865Z,101468.81
2023-03-05T00:51:24.680Z,101467.97
2023-03-05T00:54:29.038Z,101476.66
2023-03-05T00:57:33.468Z,101468.88
2023-03-05T01:00:38.043Z,101471.50
2023-03-05T01:03:42.732Z,101468.91
2023-03-05T01:06:47.161Z,101465.47
2023-03-05T01:09:51.625Z,101459.38
2023-03-05T01:12:57.355Z,101461.16
2023-03-05T01:16:02.177Z,101470.66
2023-03-05T01:19:06.257Z,101461.22
2023-03-05T01:22:10.650Z,101472.41
2023-03-05T01:25:16.437Z,101461.22
2023-03-05T01:28:21.002Z,101462.94
2023-03-05T01:31:25.205Z,101452.56
2023-03-05T01:34:29.951Z,101452.56
2023-03-05T01:37:33.823Z,101445.69
2023-03-05T01:40:38.173Z,101443.09
2023-03-05T01:43:44.354Z,101443.09
2023-03-05T01:46:48.682Z,101443.94
2023-03-05T01:49:54.424Z,101431.00
2023-03-05T01:53:07.084Z,101426.66
2023-03-05T01:56:11.895Z,101417.19
2023-03-05T01:59:17.585Z,101407.69
2023-03-05T02:02:22.349Z,101398.19
2023-03-05T02:05:31.162Z,101392.13
2023-03-05T02:08:35.643Z,101375.78
2023-03-05T02:11:40.250Z,101375.78
2023-03-05T02:14:48.486Z,101376.69
2023-03-05T02:17:52.981Z,101368.91
2023-03-05T02:20:57.315Z,101364.59
2023-03-05T02:24:02.058Z,101361.16
2023-03-05T02:27:07.125Z,101356.81
2023-03-05T02:30:12.681Z,101368.88
2023-03-05T02:33:19.558Z,101364.59
2023-03-05T02:36:24.036Z,101353.41
2023-03-05T02:39:28.519Z,101348.22
2023-03-05T02:42:33.637Z,101340.47
2023-03-05T02:45:38.987Z,101337.88
2023-03-05T02:48:43.234Z,101330.09
2023-03-05T02:51:47.455Z,101325.78
2023-03-05T02:54:53.026Z,101327.53
2023-03-05T02:57:57.544Z,101324.09
2023-03-05T03:01:01.788Z,101312.03
2023-03-05T03:04:06.092Z,101315.53
2023-03-05T03:07:14.240Z,101312.09
2023-03-05T03:10:18.920Z,101315.53
2023-03-05T03:13:26.274Z,101317.28
2023-03-05T03:16:31.060Z,101311.22
2023-03-05T03:19:37.427Z,101312.09
2023-03-05T03:22:43.346Z,101310.34
2023-03-05T03:25:48.220Z,101318.13
2023-03-05T03:28:52.505Z,101306.03
2023-03-05T03:31:57.169Z,101306.03
2023-03-05T03:35:02.188Z,101308.63
2023-03-05T03:38:06.602Z,101305.16
2023-03-05T03:41:10.821Z,101301.72
2023-03-05T03:44:17.962Z,101300.03
2023-03-05T03:47:22.290Z,101301.75
2023-03-05T03:50:27.814Z,101291.41
2023-03-05T03:53:32.240Z,101283.63
2023-03-05T03:56:36.877Z,101287.06
2023-03-05T03:59:41.241Z,101277.56
2023-03-05T04:02:45.785Z,101281.03
2023-03-05T04:05:50.317Z,101272.38
2023-03-05T04:08:54.970Z,101272.38
2023-03-05T04:11:59.316Z,101268.09
2023-03-05T04:15:05.786Z,101259.47
2023-03-05T04:18:11.342Z,101246.56
2023-03-05T04:21:16.097Z,101243.09
2023-03-05T04:24:20.776Z,101243.09
2023-03-05T04:27:25.088Z,101231.91
2023-03-05T04:30:29.277Z,101235.41
2023-03-05T04:33:33.950Z,101228.47
2023-03-05T04:36:38.260Z,101221.59
2023-03-05T04:39:42.503Z,101219.00
2023-03-05T04:42:47.097Z,101213.81
2023-03-05T04:45:51.216Z,101215.56
2023-03-05T04:48:56.856Z,101213.81
2023-03-05T04:52:01.556Z,101207.78
2023-03-05T04:55:06.785Z,101206.94
2023-03-05T04:58:11.416Z,101196.53
2023-03-05T05:01:15.601Z,101192.25
2023-03-05T05:04:19.732Z,101203.44
2023-03-05T05:07:24.218Z,101204.28
2023-03-05T05:10:28.882Z,101196.50
2023-03-05T05:13:34.048Z,101194.75
2023-03-05T05:16:38.445Z,101193.91
2023-03-05T05:19:42.600Z,101192.19
2023-03-05T05:22:46.636Z,101188.72
2023-03-05T05:26:02.544Z,101187.88
2023-03-05T05:29:06.946Z,101187.88
2023-03-05T05:32:11.011Z,101180.97
2023-03-05T05:35:15.320Z,101175.78
2023-03-05T05:38:19.996Z,101174.91
2023-03-05T05:41:24.824Z,101180.03
2023-03-05T05:44:29.240Z,101176.56
2023-03-05T05:47:33.428Z,101175.72
2023-03-05T05:50:39.309Z,101169.69
2023-03-05T05:53:44.120Z,101161.91
2023-03-05T05:56:48.604Z,101158.44
2023-03-05T05:59:53.218Z,101163.63
2023-03-05T06:02:57.453Z,101161.91
2023-03-05T06:06:02.005Z,101167.06
2023-03-05T06:09:06.325Z,101168.84
2023-03-05T06:12:11.296Z,101168.84
2023-03-05T06:15:15.366Z,101174.00
2023-03-05T06:18:19.691Z,101178.38
2023-03-05T06:21:24.088Z,101179.19
2023-03-05T06:24:28.802Z,101172.31
2023-03-05T06:27:35.000Z,101174.03
2023-03-05T06:30:39.491Z,101167.16
2023-03-05T06:33:44.559Z,101166.25
2023-03-05T06:36:48.961Z,101170.59
2023-03-05T06:39:53.316Z,101181.78
2023-03-05T06:42:57.654Z,101186.00
2023-03-05T06:46:24.511Z,101184.31
2023-03-05T06:49:29.126Z,101183.47
2023-03-05T06:52:33.322Z,101184.38
2023-03-05T06:55:39.805Z,101175.78
2023-03-05T06:58:46.202Z,101168.94
2023-03-05T07:01:50.804Z,101172.41
2023-03-05T07:04:55.198Z,101172.41
2023-03-05T07:07:59.666Z,101172.38
2023-03-05T07:11:09.890Z,101165.47
2023-03-05T07:14:14.220Z,101157.72
2023-03-05T07:17:18.767Z,101150.84
2023-03-05T07:20:23.525Z,101152.50
2023-03-05T07:23:28.733Z,101153.31
2023-03-05T07:26:33.658Z,101155.91
2023-03-05T07:29:37.958Z,101151.53
2023-03-05T07:32:42.424Z,101149.88
2023-03-05T07:35:46.872Z,101155.03
2023-03-05T07:38:51.326Z,101142.06
2023-03-05T07:41:55.723Z,101144.59
2023-03-05T07:44:59.976Z,101143.78
2023-03-05T07:48:04.459Z,101138.53
2023-03-05T07:51:17.284Z,101146.31
2023-03-05T07:54:21.453Z,101138.56
2023-03-05T07:57:25.722Z,101144.56
2023-03-05T08:00:30.127Z,101141.97
2023-03-05T08:03:34.394Z,101139.41
2023-03-05T08:06:42.241Z,101140.31
2023-03-05T08:09:46.280Z,101139.41
2023-03-05T08:12:50.360Z,101143.69
2023-03-05T08:15:54.714Z,101143.56
2023-03-05T08:19:00.438Z,101136.59
2023-03-05T08:22:04.571Z,101140.88
2023-03-05T08:25:10.238Z,101129.56
2023-03-05T08:28:16.622Z,101126.13
2023-03-05T08:31:24.489Z,101115.59
2023-03-05T08:34:28.726Z,101121.53
2023-03-05T08:37:33.519Z,101108.66
2023-03-05T08:40:38.155Z,101099.13
2023-03-05T08:43:42.969Z,101093.13
2023-03-05T08:46:47.551Z,101083.63
2023-03-05T08:49:55.498Z,101091.28
2023-03-05T08:53:00.166Z,101082.56
2023-03-05T08:56:04.940Z,101087.75
2023-03-05T08:59:12.597Z,101081.16
2023-03-05T09:02:17.743Z,101077.94
2023-03-05T09:05:22.247Z,101073.84
2023-03-05T09:08:27.109Z,101075.59
2023-03-05T09:11:31.384Z,101074.78
2023-03-05T09:14:35.563Z,101079.06
2023-03-05T09:17:41.957Z,101079.94
2023-03-05T09:20:46.227Z,101080.81
2023-03-05T09:23:50.789Z,101080.81
2023-03-05T09:27:00.336Z,101085.91
2023-03-05T09:30:06.334Z,101099.53
2023-03-05T09:33:11.474Z,101103.66
2023-03-05T09:36:24.289Z,101114.81
2023-03-05T09:39:28.554Z,101120.72
2023-03-05T09:43:24.175Z,101122.28
2023-03-05T09:46:54.799Z,101117.97
2023-03-05T09:50:11.350Z,101123.00
2023-03-05T09:53:26.455Z,101125.38
2023-03-05T09:56:40.590Z,101120.72
2023-03-05T10:00:02.218Z,101117.00
2023-03-05T10:03:19.711Z,101107.63
2023-03-05T10:06:32.445Z,101099.75
2023-03-05T10:09:58.102Z,101090.25
2023-03-05T10:13:22.840Z,101075.31
2023-03-05T10:16:48.396Z,101059.69
2023-03-05T10:20:21.760Z,101039.06
2023-03-05T10:24:04.595Z,101023.47
2023-03-05T10:27:20.425Z,101005.91
2023-03-05T10:30:41.205Z,101001.69
2023-03-05T10:34:12.300Z,100982.34
2023-03-05T10:37:27.808Z,100982.81
2023-03-05T10:40:55.164Z,100963.72
2023-03-05T10:44:24.593Z,100956.34
2023-03-05T10:48:11.539Z,100937.41
2023-03-05T10:51:23.393Z,100935.69
2023-03-05T10:54:32.843Z,100926.78
2023-03-05T10:57:37.280Z,100919.50
2023-03-05T11:00:58.829Z,100906.41
2023-03-05T11:04:04.900Z,100888.41
2023-03-05T11:07:33.007Z,100858.38
2023-03-05T11:10:37.182Z,100851.03
2023-03-05T11:14:05.666Z,100839.09
2023-03-05T11:17:47.870Z,100835.03
2023-03-05T11:21:06.574Z,100826.81
2023-03-05T11:24:14.058Z,100828.03
2023-03-05T11:27:56.075Z,100836.09
2023-03-05T11:31:13.495Z,100837.19
2023-03-05T11:34:35.407Z,100832.06
2023-03-05T11:37:40.135Z,100822.50
2023-03-05T11:40:44.897Z,100819.31
2023-03-05T11:43:52.313Z,100812.13
2023-03-05T11:47:21.047Z,100809.22
2023-03-05T11:50:32.834Z,100808.81
2023-03-05T11:53:38.706Z,100797.16
2023-03-05T11:56:45.775Z,100804.81
2023-03-05T11:59:52.921Z,100801.91
2023-03-05T12:03:02.613Z,100786.63
2023-03-05T12:06:49.049Z,100793.66
2023-03-05T12:09:53.787Z,100782.66
2023-03-05T12:13:26.760Z,100787.84
2023-03-05T12:16:53.866Z,100793.75
2023-03-05T12:20:18.021Z,100782.13
2023-03-05T12:23:23.357Z,100778.72
2023-03-05T12:27:09.762Z,100794.59
2023-03-05T12:30:49.538Z,100785.09
2023-03-05T12:33:57.006Z,100784.22
2023-03-05T12:37:01.490Z,100778.41
2023-03-05T12:40:32.524Z,100765.63
2023-03-05T12:43:37.072Z,100746.16
2023-03-05T12:47:06.033Z,100741.88
2023-03-05T12:50:32.866Z,100734.66
2023-03-05T12:53:37.528Z,100722.25
2023-03-05T12:56:46.448Z,100722.75
2023-03-05T13:00:13.797Z,100713.97
2023-03-05T13:03:58.156Z,100705.28
2023-03-05T13:07:14.007Z,100699.22
2023-03-05T13:10:29.511Z,100703.84
2023-03-05T13:13:38.187Z,100698.09
2023-03-05T13:16:42.665Z,100696.28
2023-03-05T13:19:47.445Z,100695.44
2023-03-05T13:23:14.363Z,100698.84
2023-03-05T13:26:20.800Z,100690.22
2023-03-05T13:29:28.366Z,100683.84
2023-03-05T13:32:33.527Z,100692.13
2023-03-05T13:35:46.293Z,100681.91
2023-03-05T13:38:51.092Z,100673.03
2023-03-05T13:42:02.751Z,100673.13
2023-03-05T13:45:31.162Z,100674.84
2023-03-05T13:48:35.663Z,100676.41
2023-03-05T13:51:48.026Z,100675.69
2023-03-05T13:54:52.449Z,100670.09
2023-03-05T13:57:56.638Z,100670.88
2023-03-05T14:01:21.818Z,100671.53
2023-03-05T14:04:32.224Z,100670.91
2023-03-05T14:07:41.456Z,100661.81
2023-03-05T14:10:45.919Z,100664.50
2023-03-05T14:14:05.715Z,100667.75
2023-03-05T14:17:41.840Z,100670.56
2023-03-05T14:21:12.216Z,100669.28
2023-03-05T14:24:28.401Z,100677.81
2023-03-05T14:27:36.666Z,100675.22
2023-03-05T14:30:51.062Z,100675.09
2023-03-05T14:34:04.356Z,100655.22
2023-03-05T14:37:24.078Z,100652.28
2023-03-05T14:40:34.325Z,100639.34
2023-03-05T14:43:38.706Z,100633.97
2023-03-05T14:46:48.144Z,100625.34
2023-03-05T14:49:52.890Z,100630.56
2023-03-05T14:53:08.358Z,100632.44
2023-03-05T14:56:33.682Z,100623.75
2023-03-05T14:59:37.895Z,100620.31
2023-03-05T15:02:42.634Z,100624.88
2023-03-05T15:05:51.609Z,100617.72
2023-03-05T15:08:56.161Z,100618.16
2023-03-05T15:12:00.383Z,100613.75
2023-03-05T15:15:06.528Z,100606.00
2023-03-05T15:18:14.587Z,100610.75
2023-03-05T15:21:19.228Z,100606.88
2023-03-05T15:24:23.338Z,100615.00
2023-03-05T15:27:27.661Z,100612.28
2023-03-05T15:30:39.463Z,100610.66
2023-03-05T15:33:43.582Z,100604.63
2023-03-05T15:36:47.900Z,100603.16
2023-03-05T15:39:53.103Z,100609.25
2023-03-05T15:42:59.474Z,100616.31
2023-03-05T15:46:06.866Z,100611.31
2023-03-05T15:49:11.588Z,100612.25
2023-03-05T15:52:15.820Z,100605.47
2023-03-05T15:55:20.679Z,100607.25
2023-03-05T15:58:24.972Z,100598.47
2023-03-05T16:01:29.500Z,100597.78
2023-03-05T16:04:34.352Z,100579.84
2023-03-05T16:07:44.673Z,100585.16
2023-03-05T16:10:49.024Z,100586.00
2023-03-05T16:13:53.570Z,100586.69
2023-03-05T16:17:01.081Z,100585.22
2023-03-05T16:20:06.907Z,100582.75
2023-03-05T16:23:11.148Z,100579.38
2023-03-05T16:26:15.694Z,100583.84
2023-03-05T16:29:20.169Z,100580.56
2023-03-05T16:32:25.444Z,100576.03
2023-03-05T16:35:30.078Z,100572.59
2023-03-05T16:38:34.425Z,100576.78
2023-03-05T16:41:43.386Z,100569.91
2023-03-05T16:44:49.894Z,100573.38
2023-03-05T16:47:54.803Z,100559.75
2023-03-05T16:51:00.384Z,100564.13
2023-03-05T16:54:05.046Z,100568.50
2023-03-05T16:57:09.903Z,100565.16
2023-03-05T17:00:15.299Z,100570.50
2023-03-05T17:03:19.906Z,100568.91
2023-03-05T17:06:27.774Z,100569.06
2023-03-05T17:09:32.000Z,100567.22
2023-03-05T17:12:36.507Z,100564.66
2023-03-05T17:15:40.778Z,100568.97
2023-03-05T17:18:45.497Z,100570.69
2023-03-05T17:21:52.081Z,100562.91
2023-03-05T17:24:56.097Z,100565.50
2023-03-05T17:28:00.664Z,100557.75
2023-03-05T17:31:04.992Z,100567.34
2023-03-05T17:34:10.139Z,100563.75
2023-03-05T17:37:16.188Z,100567.34
2023-03-05T17:40:21.412Z,100574.31
2023-03-05T17:43:25.840Z,100576.13
2023-03-05T17:46:31.657Z,100574.38
2023-03-05T17:49:36.915Z,100575.22
2023-03-05T17:52:42.892Z,100582.47
2023-03-05T17:55:49.800Z,100574.91
2023-03-05T17:58:55.745Z,100574.91
2023-03-05T18:02:03.071Z,100574.91
2023-03-05T18:05:09.694Z,100578.50
2023-03-05T18:08:15.241Z,100575.84
2023-03-05T18:11:21.714Z,100579.34
2023-03-05T18:14:26.718Z,100575.94
2023-03-05T18:17:31.556Z,100574.34
2023-03-05T18:20:37.503Z,100570.03
2023-03-05T18:23:41.688Z,100573.56
2023-03-05T18:26:46.380Z,100575.31
2023-03-05T18:29:53.957Z,100577.81
2023-03-05T18:32:59.485Z,100576.16
2023-03-05T18:36:04.494Z,100573.66
2023-03-05T18:39:11.424Z,100571.09
2023-03-05T18:42:15.935Z,100565.22
2023-03-05T18:45:22.935Z,100567.31
2023-03-05T18:48:27.119Z,100562.34
2023-03-05T18:51:32.198Z,100563.44
2023-03-05T18:54:36.461Z,100564.28
2023-03-05T18:57:42.794Z,100566.00
2023-03-05T19:00:49.077Z,100555.59
2023-03-05T19:03:58.792Z,100559.84
2023-03-05T19:07:04.651Z,100549.56
2023-03-05T19:10:15.784Z,100552.09
2023-03-05T19:13:41.737Z,100554.63
2023-03-05T19:16:49.723Z,100550.25
2023-03-05T19:19:58.994Z,100553.72
2023-03-05T19:23:04.781Z,100560.88
2023-03-05T19:26:10.934Z,100545.56
2023-03-05T19:29:16.739Z,100550.81
2023-03-05T19:32:27.848Z,100547.44
2023-03-05T19:35:33.312Z,100548.28
2023-03-05T19:38:39.339Z,100543.75
2023-03-05T19:41:44.735Z,100541.97
2023-03-05T19:44:50.001Z,100531.78
2023-03-05T19:47:55.856Z,100526.78
2023-03-05T19:51:00.738Z,100527.59
2023-03-05T19:54:06.519Z,100532.75
2023-03-05T19:57:12.513Z,100536.97
2023-03-05T20:00:27.449Z,100537.00
2023-03-05T20:03:31.918Z,100533.59
2023-03-05T20:06:36.166Z,100529.38
2023-03-05T20:09:40.577Z,100527.69
2023-03-05T20:12:48.089Z,100524.97
2023-03-05T20:15:55.839Z,100522.38
2023-03-05T20:19:02.965Z,100535.31
2023-03-05T20:22:07.268Z,100523.25
2023-03-05T20:25:16.337Z,100521.72
2023-03-05T20:28:25.818Z,100515.78
2023-03-05T20:31:31.384Z,100516.59
2023-03-05T20:34:35.874Z,100519.13
2023-03-05T20:37:49.195Z,100516.56
2023-03-05T20:41:01.109Z,100516.63
2023-03-05T20:44:07.577Z,100514.94
2023-03-05T20:47:35.043Z,100521.09
2023-03-05T20:50:40.964Z,100514.25
2023-03-05T20:53:45.909Z,100515.22
2023-03-05T20:56:49.885Z,100515.19
2023-03-05T20:59:54.316Z,100502.94
2023-03-05T21:02:58.960Z,100497.63
2023-03-05T21:06:04.892Z,100492.28
2023-03-05T21:09:09.070Z,100490.69
2023-03-05T21:12:13.475Z,100487.41
2023-03-05T21:15:30.157Z,100472.75
2023-03-05T21:18:35.224Z,100466.59
2023-03-05T21:21:45.520Z,100468.34
2023-03-05T21:25:02.012Z,100470.19
2023-03-05T21:28:18.775Z,100467.66
2023-03-05T21:31:23.507Z,100474.63
2023-03-05T21:34:27.748Z,100465.03
2023-03-05T21:37:32.221Z,100474.38
2023-03-05T21:40:43.504Z,100464.81
2023-03-05T21:43:48.043Z,100460.44
2023-03-05T21:46:52.520Z,100454.41
2023-03-05T21:49:57.181Z,100455.34
2023-03-05T21:53:02.751Z,100443.28
2023-03-05T21:56:18.163Z,100447.72
2023-03-05T21:59:22.410Z,100442.41
2023-03-05T22:02:26.767Z,100438.16
2023-03-05T22:05:31.303Z,100437.19
2023-03-05T22:08:35.948Z,100425.28
2023-03-05T22:11:45.367Z,100425.19
2023-03-05T22:14:49.974Z,100429.34
2023-03-05T22:17:54.553Z,100424.91
2023-03-05T22:21:00.085Z,100421.34
2023-03-05T22:24:05.423Z,100416.06
2023-03-05T22:27:09.831Z,100416.91
2023-03-05T22:30:14.388Z,100413.38
2023-03-05T22:33:20.740Z,100411.53
2023-03-05T22:36:26.526Z,100421.06
2023-03-05T22:39:47.744Z,100413.38
2023-03-05T22:47:07.968Z,100417.00
2023-03-05T22:50:12.533Z,100412.91
2023-03-05T22:53:16.594Z,100413.06
2023-03-05T22:56:21.312Z,100409.78
2023-03-05T22:59:25.627Z,100415.09
2023-03-05T23:02:31.128Z,100419.47
2023-03-05T23:05:37.772Z,100415.19
2023-03-05T23:08:41.957Z,100413.47
2023-03-05T23:11:46.420Z,100410.16
2023-03-05T23:14:50.336Z,100418.84
2023-03-05T23:17:55.090Z,100420.56
2023-03-05T23:20:59.502Z,100426.53
2023-03-05T23:24:04.062Z,100418.00
2023-03-05T23:27:08.839Z,100416.22
2023-03-05T23:30:18.026Z,100424.75
2023-03-05T23:33:23.348Z,100425.69
2023-03-05T23:36:27.326Z,100419.69
2023-03-05T23:39:31.744Z,100420.53
2023-03-05T23:42:38.217Z,100424.03
2023-03-05T23:45:44.974Z,100426.66
2023-03-05T23:48:49.415Z,100425.94
2023-03-05T23:51:53.765Z,100424.16
2023-03-05T23:54:58.947Z,100426.75
2023-03-05T23:58:03.674Z,100431.81
